createdAt,value
2023-01-31T00:01:29.906Z,2.65
2023-01-31T00:03:59.132Z,1.80
2023-01-31T00:06:28.465Z,2.63
2023-01-31T00:08:56.873Z,2.08
2023-01-31T00:11:26.448Z,2.10
2023-01-31T00:13:54.778Z,1.88
2023-01-31T00:16:23.453Z,2.50
2023-01-31T00:18:52.308Z,2.72
2023-01-31T00:21:21.642Z,2.08
2023-01-31T00:23:50.538Z,2.08
2023-01-31T00:26:20.529Z,2.17
2023-01-31T00:28:49.887Z,1.98
2023-01-31T00:31:20.534Z,2.05
2023-01-31T00:33:52.747Z,2.08
2023-01-31T00:36:25.408Z,1.80
2023-01-31T00:38:55.056Z,2.33
2023-01-31T00:41:24.461Z,2.47
2023-01-31T00:43:52.424Z,2.47
2023-01-31T00:46:20.515Z,2.28
2023-01-31T00:48:48.630Z,1.98
2023-01-31T00:51:18.233Z,2.95
2023-01-31T00:53:46.118Z,3.25
2023-01-31T00:56:16.449Z,2.13
2023-01-31T00:58:44.118Z,3.03
2023-01-31T01:01:16.936Z,3.28
2023-01-31T01:03:49.284Z,2.53
2023-01-31T01:06:20.816Z,2.58
2023-01-31T01:08:49.035Z,2.90
2023-01-31T01:11:20.304Z,2.55
2023-01-31T01:13:48.063Z,2.72
2023-01-31T01:16:17.604Z,1.85
2023-01-31T01:18:49.190Z,2.45
2023-01-31T01:21:20.311Z,1.55
2023-01-31T01:23:48.209Z,2.35
2023-01-31T01:26:17.519Z,2.55
2023-01-31T01:28:45.457Z,1.90
2023-01-31T01:31:16.191Z,3.08
2023-01-31T01:33:44.963Z,2.08
2023-01-31T01:36:17.232Z,2.60
2023-01-31T01:38:46.859Z,2.22
2023-01-31T01:41:15.385Z,1.92
2023-01-31T01:43:48.546Z,2.35
2023-01-31T01:46:21.198Z,2.25
2023-01-31T01:48:52.101Z,2.65
2023-01-31T01:51:21.064Z,2.10
2023-01-31T01:53:55.408Z,2.85
2023-01-31T01:56:29.291Z,2.60
2023-01-31T01:59:02.068Z,2.35
2023-01-31T02:01:33.206Z,2.13
2023-01-31T02:04:00.758Z,2.80
2023-01-31T02:06:32.038Z,2.08
2023-01-31T02:09:01.115Z,3.00
2023-01-31T02:11:31.117Z,2.15
2023-01-31T02:14:02.401Z,2.38
2023-01-31T02:16:30.486Z,2.35
2023-01-31T02:18:59.037Z,2.65
2023-01-31T02:21:49.683Z,1.80
2023-01-31T02:25:02.283Z,2.38
2023-01-31T02:27:41.627Z,2.40
2023-01-31T02:30:35.654Z,2.30
2023-01-31T02:33:19.908Z,2.97
2023-01-31T02:35:59.321Z,2.90
2023-01-31T02:38:43.218Z,2.10
2023-01-31T02:41:17.944Z,2.17
2023-01-31T02:44:12.222Z,2.00
2023-01-31T02:46:50.496Z,2.45
2023-01-31T02:49:35.338Z,2.08
2023-01-31T02:52:21.956Z,1.77
2023-01-31T02:55:19.404Z,2.20
2023-01-31T02:57:50.200Z,1.98
2023-01-31T03:00:19.741Z,1.58
2023-01-31T03:02:47.379Z,1.63
2023-01-31T03:05:18.408Z,2.15
2023-01-31T03:07:51.248Z,1.83
2023-01-31T03:10:36.476Z,2.30
2023-01-31T03:13:20.866Z,1.88
2023-01-31T03:16:17.851Z,2.10
2023-01-31T03:18:50.363Z,2.10
2023-01-31T03:21:24.440Z,2.67
2023-01-31T03:23:54.594Z,2.13
2023-01-31T03:26:23.528Z,2.15
2023-01-31T03:28:57.059Z,2.50
2023-01-31T03:31:30.335Z,1.90
2023-01-31T03:34:01.552Z,1.70
2023-01-31T03:36:36.620Z,2.25
2023-01-31T03:39:29.432Z,1.63
2023-01-31T03:42:07.334Z,2.20
2023-01-31T03:44:41.876Z,2.33
2023-01-31T03:47:17.252Z,2.15
2023-01-31T03:49:47.415Z,1.80
2023-01-31T03:52:23.663Z,2.30
2023-01-31T03:54:57.316Z,2.47
2023-01-31T03:57:29.942Z,3.03
2023-01-31T04:00:00.694Z,2.92
2023-01-31T04:02:34.091Z,2.45
2023-01-31T04:05:07.584Z,4.07
2023-01-31T04:07:38.549Z,3.78
2023-01-31T04:10:13.064Z,2.45
2023-01-31T04:12:40.815Z,2.92
2023-01-31T04:15:09.729Z,3.13
2023-01-31T04:17:37.297Z,1.83
2023-01-31T04:20:05.858Z,2.05
2023-01-31T04:22:33.633Z,2.88
2023-01-31T04:25:02.660Z,2.38
2023-01-31T04:27:30.308Z,2.22
2023-01-31T04:29:57.930Z,3.35
2023-01-31T04:32:25.628Z,2.60
2023-01-31T04:34:53.171Z,2.95
2023-01-31T04:37:20.660Z,3.42
2023-01-31T04:39:48.139Z,3.25
2023-01-31T04:42:16.981Z,2.58
2023-01-31T04:44:44.679Z,1.92
2023-01-31T04:47:12.208Z,2.75
2023-01-31T04:49:39.805Z,3.05
2023-01-31T04:52:07.462Z,2.30
2023-01-31T04:54:35.383Z,2.35
2023-01-31T04:57:03.203Z,3.75
2023-01-31T04:59:32.503Z,3.22
2023-01-31T05:02:00.351Z,1.63
2023-01-31T05:04:27.962Z,2.13
2023-01-31T05:06:55.553Z,2.45
2023-01-31T05:09:23.110Z,2.30
2023-01-31T05:11:50.794Z,2.10
2023-01-31T05:14:20.956Z,2.25
2023-01-31T05:16:49.917Z,2.17
2023-01-31T05:19:17.582Z,2.60
2023-01-31T05:21:59.016Z,2.60
2023-01-31T05:24:29.176Z,2.30
2023-01-31T05:26:58.594Z,2.75
2023-01-31T05:29:27.027Z,2.50
2023-01-31T05:31:58.297Z,2.63
2023-01-31T05:34:28.593Z,2.47
2023-01-31T05:36:56.410Z,3.03
2023-01-31T05:39:23.973Z,3.10
2023-01-31T05:41:52.703Z,2.30
2023-01-31T05:44:20.483Z,2.55
2023-01-31T05:46:48.439Z,3.97
2023-01-31T05:49:17.423Z,2.55
2023-01-31T05:51:45.032Z,2.85
2023-01-31T05:54:13.241Z,3.30
2023-01-31T05:56:40.863Z,2.60
2023-01-31T05:59:08.448Z,2.35
2023-01-31T06:01:35.960Z,2.83
2023-01-31T06:04:03.589Z,2.70
2023-01-31T06:06:32.511Z,3.03
2023-01-31T06:09:00.262Z,3.10
2023-01-31T06:11:27.951Z,2.80
2023-01-31T06:13:57.611Z,2.60
2023-01-31T06:16:25.577Z,2.55
2023-01-31T06:18:53.170Z,1.77
2023-01-31T06:21:20.666Z,2.88
2023-01-31T06:23:49.607Z,3.13
2023-01-31T06:26:17.248Z,3.33
2023-01-31T06:28:46.291Z,2.53
2023-01-31T06:31:14.407Z,2.47
2023-01-31T06:33:47.217Z,2.83
2023-01-31T06:36:18.416Z,2.75
2023-01-31T06:38:51.423Z,3.03
2023-01-31T06:41:19.327Z,3.05
2023-01-31T06:43:46.940Z,2.10
2023-01-31T06:46:14.729Z,2.63
2023-01-31T06:48:42.331Z,3.50
2023-01-31T06:51:09.838Z,2.35
2023-01-31T06:53:37.445Z,2.35
2023-01-31T06:56:07.455Z,2.72
2023-01-31T06:58:35.317Z,2.20
2023-01-31T07:01:06.048Z,2.40
2023-01-31T07:03:33.653Z,3.35
2023-01-31T07:06:01.365Z,2.53
2023-01-31T07:08:29.243Z,3.05
2023-01-31T07:10:57.096Z,2.50
2023-01-31T07:13:26.346Z,2.40
2023-01-31T07:15:53.969Z,2.42
2023-01-31T07:18:21.659Z,2.53
2023-01-31T07:20:49.263Z,1.85
2023-01-31T07:23:17.233Z,2.40
2023-01-31T07:25:44.794Z,2.45
2023-01-31T07:28:12.975Z,2.30
2023-01-31T07:30:43.744Z,2.38
2023-01-31T07:33:11.902Z,3.38
2023-01-31T07:35:39.551Z,2.97
2023-01-31T07:38:07.074Z,3.00
2023-01-31T07:40:34.729Z,3.40
2023-01-31T07:43:02.365Z,2.83
2023-01-31T07:45:29.927Z,4.18
2023-01-31T07:47:59.937Z,3.15
2023-01-31T07:50:28.021Z,4.00
2023-01-31T07:52:57.932Z,3.55
2023-01-31T07:55:25.468Z,3.20
2023-01-31T07:57:52.980Z,3.80
2023-01-31T08:00:39.219Z,3.85
2023-01-31T08:03:34.467Z,4.35
2023-01-31T08:06:04.588Z,4.95
2023-01-31T08:08:32.750Z,4.28
2023-01-31T08:11:00.642Z,4.32
2023-01-31T08:13:28.192Z,4.25
2023-01-31T08:15:55.689Z,5.70
2023-01-31T08:18:24.638Z,3.80
2023-01-31T08:20:52.221Z,4.80
2023-01-31T08:23:19.889Z,5.55
2023-01-31T08:25:47.408Z,4.93
2023-01-31T08:28:15.283Z,3.90
2023-01-31T08:30:46.501Z,5.35
2023-01-31T08:33:17.873Z,5.43
2023-01-31T08:35:46.769Z,5.72
2023-01-31T08:38:16.698Z,5.35
2023-01-31T08:40:44.831Z,4.85
2023-01-31T08:43:12.463Z,4.63
2023-01-31T08:45:39.979Z,4.57
2023-01-31T08:48:07.653Z,5.18
2023-01-31T08:50:35.542Z,4.43
2023-01-31T08:53:06.240Z,4.32
2023-01-31T08:55:36.631Z,4.35
2023-01-31T08:58:04.218Z,5.00
2023-01-31T09:00:32.391Z,4.95
2023-01-31T09:03:01.533Z,4.28
2023-01-31T09:05:30.480Z,5.45
2023-01-31T09:07:58.156Z,5.18
2023-01-31T09:10:27.156Z,5.00
2023-01-31T09:12:54.776Z,4.82
2023-01-31T09:15:22.750Z,5.65
2023-01-31T09:17:50.457Z,4.80
2023-01-31T09:20:18.548Z,4.40
2023-01-31T09:22:46.340Z,4.00
2023-01-31T09:25:13.927Z,5.70
2023-01-31T09:27:42.866Z,5.13
2023-01-31T09:30:12.188Z,5.22
2023-01-31T09:32:41.342Z,5.30
2023-01-31T09:35:09.794Z,6.00
2023-01-31T09:37:37.698Z,5.88
2023-01-31T09:40:05.800Z,5.50
2023-01-31T09:42:37.632Z,5.80
2023-01-31T09:45:13.314Z,5.53
2023-01-31T09:47:46.312Z,5.63
2023-01-31T09:50:20.655Z,4.95
2023-01-31T09:52:48.830Z,5.50
2023-01-31T09:55:17.888Z,5.60
2023-01-31T09:57:53.691Z,5.22
2023-01-31T10:00:29.214Z,5.75
2023-01-31T10:03:22.843Z,5.53
2023-01-31T10:05:53.862Z,5.85
2023-01-31T10:08:31.780Z,5.88
2023-01-31T10:11:02.178Z,6.45
2023-01-31T10:13:36.882Z,6.32
2023-01-31T10:16:14.736Z,6.45
2023-01-31T10:18:45.684Z,6.22
2023-01-31T10:21:17.649Z,6.65
2023-01-31T10:23:50.801Z,5.70
2023-01-31T10:26:24.643Z,7.40
2023-01-31T10:28:59.954Z,6.72
2023-01-31T10:31:33.673Z,6.38
2023-01-31T10:34:04.711Z,7.30
2023-01-31T10:36:35.681Z,6.70
2023-01-31T10:39:07.693Z,7.10
2023-01-31T10:41:52.494Z,7.97
2023-01-31T10:44:26.387Z,7.57
2023-01-31T10:46:57.792Z,8.15
2023-01-31T10:49:27.239Z,8.38
2023-01-31T10:52:08.892Z,7.18
2023-01-31T10:54:48.870Z,7.40
2023-01-31T10:57:18.058Z,7.68
2023-01-31T10:59:47.931Z,7.40
2023-01-31T11:02:23.488Z,7.72
2023-01-31T11:04:53.044Z,7.75
2023-01-31T11:07:21.120Z,6.53
2023-01-31T11:09:53.926Z,6.93
2023-01-31T11:12:22.667Z,6.80
2023-01-31T11:15:07.599Z,7.15
2023-01-31T11:17:38.450Z,7.35
2023-01-31T11:20:07.840Z,7.88
2023-01-31T11:22:38.555Z,7.50
2023-01-31T11:25:07.744Z,7.68
2023-01-31T11:27:40.505Z,7.53
2023-01-31T11:30:22.504Z,7.05
2023-01-31T11:32:51.824Z,6.80
2023-01-31T11:35:29.189Z,7.78
2023-01-31T11:37:58.665Z,7.25
2023-01-31T11:40:32.219Z,7.72
2023-01-31T11:43:01.866Z,6.90
2023-01-31T11:45:32.337Z,6.55
2023-01-31T11:48:08.671Z,6.38
2023-01-31T11:50:39.456Z,6.53
2023-01-31T11:53:18.152Z,6.32
2023-01-31T11:55:46.830Z,6.95
2023-01-31T11:58:19.681Z,6.22
2023-01-31T12:00:55.230Z,6.32
2023-01-31T12:03:24.650Z,6.18
2023-01-31T12:06:00.886Z,5.65
2023-01-31T12:08:34.034Z,5.07
2023-01-31T12:11:05.868Z,5.28
2023-01-31T12:13:46.915Z,5.35
2023-01-31T12:16:15.369Z,4.63
2023-01-31T12:19:00.616Z,4.38
2023-01-31T12:21:50.254Z,4.45
2023-01-31T12:24:30.845Z,4.55
2023-01-31T12:27:05.098Z,4.20
2023-01-31T12:29:51.510Z,4.30
2023-01-31T12:32:33.925Z,4.50
2023-01-31T12:35:25.363Z,4.10
2023-01-31T12:38:06.402Z,4.70
2023-01-31T12:40:40.648Z,3.10
2023-01-31T12:43:22.331Z,3.88
2023-01-31T12:46:09.510Z,3.05
2023-01-31T12:48:47.727Z,2.88
2023-01-31T12:51:29.624Z,3.00
2023-01-31T12:54:11.030Z,2.75
2023-01-31T12:56:52.700Z,2.25
2023-01-31T12:59:46.487Z,2.05
2023-01-31T13:02:28.450Z,2.72
2023-01-31T13:05:01.244Z,1.95
2023-01-31T13:07:33.326Z,1.95
2023-01-31T13:10:03.976Z,1.40
2023-01-31T13:12:34.884Z,1.90
2023-01-31T13:15:06.614Z,1.80
2023-01-31T13:17:38.958Z,2.55
2023-01-31T13:20:22.320Z,1.88
2023-01-31T13:22:54.284Z,1.40
2023-01-31T13:25:25.390Z,1.70
2023-01-31T13:27:59.534Z,1.40
2023-01-31T13:30:36.799Z,1.70
2023-01-31T13:33:24.702Z,1.52
2023-01-31T13:36:00.849Z,1.83
2023-01-31T13:38:37.117Z,1.50
2023-01-31T13:41:06.884Z,2.13
2023-01-31T13:43:34.953Z,2.38
2023-01-31T13:46:06.236Z,1.98
2023-01-31T13:48:38.644Z,2.80
2023-01-31T13:51:11.476Z,2.53
2023-01-31T13:53:46.098Z,2.38
2023-01-31T13:56:22.406Z,2.35
2023-01-31T13:58:52.384Z,2.70
2023-01-31T14:01:23.823Z,3.40
2023-01-31T14:04:24.938Z,3.03
2023-01-31T14:07:11.235Z,3.28
2023-01-31T14:09:43.405Z,2.08
2023-01-31T14:12:34.540Z,2.17
2023-01-31T14:15:03.443Z,2.47
2023-01-31T14:18:01.069Z,2.28
2023-01-31T14:20:32.082Z,2.67
2023-01-31T14:23:30.767Z,3.92
2023-01-31T14:25:59.716Z,3.33
2023-01-31T14:28:28.065Z,2.92
2023-01-31T14:30:56.688Z,2.83
2023-01-31T14:33:29.589Z,2.47
2023-01-31T14:36:25.321Z,2.55
2023-01-31T14:39:17.661Z,3.08
2023-01-31T14:42:11.911Z,2.85
2023-01-31T14:44:51.109Z,2.97
2023-01-31T14:47:34.169Z,3.47
2023-01-31T14:50:17.173Z,3.53
2023-01-31T14:53:00.670Z,2.50
2023-01-31T14:55:40.596Z,2.63
2023-01-31T14:58:16.471Z,2.55
2023-01-31T15:00:50.018Z,2.95
2023-01-31T15:03:21.605Z,2.70
2023-01-31T15:05:51.662Z,4.25
2023-01-31T15:08:42.354Z,3.17
2023-01-31T15:11:40.979Z,4.05
2023-01-31T15:14:41.902Z,3.97
2023-01-31T15:17:32.102Z,3.55
2023-01-31T15:20:14.710Z,4.63
2023-01-31T15:22:43.485Z,3.80
2023-01-31T15:25:24.338Z,4.53
2023-01-31T15:27:52.978Z,4.88
2023-01-31T15:30:23.480Z,3.83
2023-01-31T15:32:54.341Z,4.97
2023-01-31T15:35:26.444Z,4.13
2023-01-31T15:38:01.592Z,3.95
2023-01-31T15:40:30.795Z,4.18
2023-01-31T15:43:16.395Z,4.15
2023-01-31T15:45:45.484Z,3.75
2023-01-31T15:48:15.338Z,4.50
2023-01-31T15:50:50.511Z,4.30
2023-01-31T15:53:19.585Z,3.65
2023-01-31T15:55:49.054Z,3.63
2023-01-31T15:58:20.073Z,3.95
2023-01-31T16:00:52.373Z,4.95
2023-01-31T16:03:23.120Z,3.60
2023-01-31T16:05:53.291Z,3.53
2023-01-31T16:08:26.792Z,4.32
2023-01-31T16:10:54.663Z,3.33
2023-01-31T16:13:23.237Z,3.40
2023-01-31T16:15:52.367Z,5.80
2023-01-31T16:18:20.305Z,2.50
2023-01-31T16:20:49.652Z,2.05
2023-01-31T16:23:29.833Z,2.03
2023-01-31T16:26:04.473Z,2.38
2023-01-31T16:28:38.689Z,2.20
2023-01-31T16:31:10.190Z,1.83
2023-01-31T16:33:38.918Z,1.52
2023-01-31T16:36:14.362Z,2.17
2023-01-31T16:38:55.958Z,1.80
2023-01-31T16:41:39.684Z,2.13
2023-01-31T16:44:07.377Z,2.70
2023-01-31T16:46:41.401Z,2.50
2023-01-31T16:49:21.829Z,2.50
2023-01-31T16:51:50.725Z,3.88
2023-01-31T16:54:21.825Z,3.53
2023-01-31T16:57:06.985Z,3.20
2023-01-31T16:59:45.946Z,3.58
2023-01-31T17:02:19.943Z,3.15
2023-01-31T17:04:49.507Z,3.78
2023-01-31T17:07:19.805Z,4.55
2023-01-31T17:09:48.502Z,4.60
2023-01-31T17:12:23.067Z,4.35
2023-01-31T17:14:52.881Z,5.13
2023-01-31T17:17:22.394Z,3.78
2023-01-31T17:19:49.910Z,4.85
2023-01-31T17:22:17.557Z,5.25
2023-01-31T17:24:46.756Z,3.53
2023-01-31T17:27:15.731Z,4.13
2023-01-31T17:29:43.553Z,4.10
2023-01-31T17:32:15.380Z,4.40
2023-01-31T17:34:45.725Z,4.20
2023-01-31T17:37:16.096Z,4.82
2023-01-31T17:39:44.151Z,3.88
2023-01-31T17:42:17.468Z,3.80
2023-01-31T17:44:45.471Z,4.80
2023-01-31T17:47:13.753Z,3.97
2023-01-31T17:49:41.372Z,5.55
2023-01-31T17:52:10.244Z,4.75
2023-01-31T17:54:37.987Z,4.95
2023-01-31T17:57:05.686Z,4.95
2023-01-31T17:59:33.279Z,5.15
2023-01-31T18:02:02.483Z,5.22
2023-01-31T18:04:30.158Z,5.60
2023-01-31T18:06:57.826Z,5.78
2023-01-31T18:09:26.860Z,6.47
2023-01-31T18:11:54.425Z,4.15
2023-01-31T18:14:22.049Z,4.95
2023-01-31T18:16:50.231Z,5.47
2023-01-31T18:19:17.845Z,4.30
2023-01-31T18:21:54.370Z,4.43
2023-01-31T18:24:22.844Z,4.93
2023-01-31T18:26:52.295Z,3.85
2023-01-31T18:29:20.826Z,5.65
2023-01-31T18:31:48.646Z,4.13
2023-01-31T18:34:16.883Z,5.28
2023-01-31T18:36:44.503Z,4.85
2023-01-31T18:39:12.086Z,4.90
2023-01-31T18:41:39.661Z,5.07
2023-01-31T18:44:08.839Z,4.57
2023-01-31T18:46:36.593Z,4.30
2023-01-31T18:49:04.202Z,4.82
2023-01-31T18:51:31.980Z,4.50
2023-01-31T18:53:59.734Z,5.40
2023-01-31T18:56:27.535Z,5.25
2023-01-31T18:58:55.351Z,5.75
2023-01-31T19:01:26.362Z,4.38
2023-01-31T19:03:56.685Z,4.28
2023-01-31T19:06:26.761Z,5.35
2023-01-31T19:08:56.392Z,4.45
2023-01-31T19:11:26.240Z,5.30
2023-01-31T19:13:54.299Z,4.60
2023-01-31T19:16:25.065Z,3.88
2023-01-31T19:18:53.273Z,4.03
2023-01-31T19:21:23.084Z,4.15
2023-01-31T19:23:52.016Z,3.75
2023-01-31T19:26:19.926Z,3.58
2023-01-31T19:28:48.498Z,4.45
2023-01-31T19:31:17.891Z,4.13
2023-01-31T19:33:50.588Z,4.63
2023-01-31T19:36:20.299Z,4.35
2023-01-31T19:38:48.329Z,4.22
2023-01-31T19:41:19.007Z,4.80
2023-01-31T19:43:46.931Z,4.55
2023-01-31T19:46:14.623Z,5.13
2023-01-31T19:48:42.318Z,4.85
2023-01-31T19:51:13.599Z,3.42
2023-01-31T19:53:42.188Z,3.92
2023-01-31T19:56:10.365Z,3.85
2023-01-31T19:58:38.529Z,4.82
2023-01-31T20:01:07.615Z,4.47
2023-01-31T20:03:35.608Z,4.18
2023-01-31T20:06:05.154Z,4.07
2023-01-31T20:08:34.379Z,4.25
2023-01-31T20:11:02.393Z,4.32
2023-01-31T20:13:29.962Z,3.90
2023-01-31T20:15:58.864Z,4.45
2023-01-31T20:18:26.615Z,3.60
2023-01-31T20:20:55.100Z,4.00
2023-01-31T20:23:22.866Z,5.88
2023-01-31T20:25:52.885Z,4.43
2023-01-31T20:28:21.168Z,4.22
2023-01-31T20:30:49.325Z,4.63
2023-01-31T20:33:17.752Z,4.88
2023-01-31T20:35:46.088Z,5.32
2023-01-31T20:38:15.599Z,4.28
2023-01-31T20:40:49.056Z,5.00
2023-01-31T20:43:18.233Z,4.15
2023-01-31T20:45:46.307Z,4.43
2023-01-31T20:48:14.614Z,4.72
2023-01-31T20:50:42.177Z,4.82
2023-01-31T20:53:21.382Z,4.50
2023-01-31T20:55:55.260Z,3.63
2023-01-31T20:58:24.841Z,3.75
2023-01-31T21:00:54.373Z,3.75
2023-01-31T21:03:22.475Z,3.90
2023-01-31T21:05:50.225Z,3.38
2023-01-31T21:08:18.287Z,3.13
2023-01-31T21:10:50.073Z,5.35
2023-01-31T21:13:20.271Z,4.88
2023-01-31T21:15:51.918Z,4.75
2023-01-31T21:18:20.088Z,4.43
2023-01-31T21:20:48.087Z,4.97
2023-01-31T21:23:15.672Z,4.38
2023-01-31T21:25:43.297Z,5.22
2023-01-31T21:28:10.869Z,4.30
2023-01-31T21:30:38.987Z,4.05
2023-01-31T21:33:07.934Z,3.67
2023-01-31T21:35:35.663Z,4.47
2023-01-31T21:38:03.203Z,4.75
2023-01-31T21:40:30.780Z,3.67
2023-01-31T21:42:57.306Z,3.63
2023-01-31T21:45:38.984Z,4.03
2023-01-31T21:48:27.419Z,3.45
2023-01-31T21:50:56.508Z,4.43
2023-01-31T21:53:24.029Z,3.65
2023-01-31T21:55:51.624Z,3.83
2023-01-31T21:58:20.833Z,3.90
2023-01-31T22:00:48.411Z,4.07
2023-01-31T22:03:17.497Z,4.30
2023-01-31T22:05:47.686Z,3.78
2023-01-31T22:08:15.797Z,4.30
2023-01-31T22:10:43.433Z,3.90
2023-01-31T22:13:11.075Z,3.83
2023-01-31T22:15:38.673Z,4.32
2023-01-31T22:18:06.368Z,4.57
2023-01-31T22:20:35.205Z,4.50
2023-01-31T22:23:02.828Z,5.00
2023-01-31T22:25:30.350Z,4.20
2023-01-31T22:27:57.878Z,3.63
2023-01-31T22:30:25.436Z,4.00
2023-01-31T22:32:53.033Z,3.80
2023-01-31T22:35:20.628Z,4.50
2023-01-31T22:37:49.589Z,4.65
2023-01-31T22:40:17.743Z,3.67
2023-01-31T22:42:45.390Z,3.88
2023-01-31T22:45:12.942Z,3.65
2023-01-31T22:47:40.489Z,3.45
2023-01-31T22:50:08.823Z,3.80
2023-01-31T22:52:36.409Z,3.17
2023-01-31T22:55:06.861Z,3.72
2023-01-31T22:57:34.424Z,4.05
2023-01-31T23:00:01.925Z,3.67
2023-01-31T23:02:29.657Z,3.53
2023-01-31T23:04:57.319Z,3.88
2023-01-31T23:07:24.991Z,3.75
2023-01-31T23:09:54.399Z,4.20
2023-01-31T23:12:23.580Z,2.83
2023-01-31T23:14:51.242Z,3.20
2023-01-31T23:17:36.675Z,3.35
2023-01-31T23:20:06.270Z,3.53
2023-01-31T23:22:34.192Z,4.65
2023-01-31T23:25:01.763Z,3.30
2023-01-31T23:27:30.732Z,4.88
2023-01-31T23:29:58.313Z,3.17
2023-01-31T23:32:26.036Z,3.50
2023-01-31T23:34:53.921Z,3.85
2023-01-31T23:37:22.306Z,4.35
2023-01-31T23:39:49.941Z,3.30
2023-01-31T23:42:17.855Z,2.95
2023-01-31T23:44:46.885Z,3.50
2023-01-31T23:47:14.500Z,3.47
2023-01-31T23:49:43.132Z,3.03
2023-01-31T23:52:11.028Z,2.92
2023-01-31T23:54:38.685Z,3.20
2023-01-31T23:57:06.374Z,2.13
2023-01-31T23:59:34.966Z,3.13
